RJBT

Details ICAO RJBT (TJH)
Name TAJIMA
Region Japan
Timezone Asia/Tokyo (UTC+9.0)
Plans Departing 8
Arriving 12
Stats Elevation 584 ft / 178 m (AMSL)
Location 35.512800° 134.787000°
Runways 1
Magnetic Variation 8.020° W
Sunrise 2018-12-10 22:01:01 UTC / 2018-12-11 07:01:01 Local
Sunset 2018-12-11 07:49:33 UTC / 2018-12-11 16:49:33 Local
Advertisement - Login to hide

Runways

ID Width Length Bearing (true/mag) Surface Threshold Overrun Markings Lighting
01 98 ft / 30 m 4,343 ft / 1,324 m 2.99° / 11.01° ASPHALT 187 ft / 57 m 0 ft / 0 m PREC-APP EDGE THRESHOLD REIL-OMNI
19 98 ft / 30 m 4,343 ft / 1,324 m 182.99° / 191.01° ASPHALT 190 ft / 58 m 0 ft / 0 m PREC-APP EDGE THRESHOLD REIL-OMNI

Approach Navaids

Runway Type Ident Frequency Range Bearing (true/mag) Slope Elevation
01 LOC-LOC ITH 108.55 MHz 18 nm / 33 km 4.32° / 12.34° - 572 ft / 174 m (AMSL)
01 DME ITH 108.55 MHz 18 nm / 33 km - - 572 ft / 174 m (AMSL)

Map

Weather


0- 5 10 15 20 25 30 35+ Temperature / °C

Clouds and Precipitation
Forecast for 2018-12-11 12:00 UTC. Updated an hour ago

Ground ~20,000 ft ~40,000 ft Winds

METAR

RJBT 110900Z 18006KT 3500 -RA BCFG FEW000 SCT050 BKN070 05/05 Q1022

TAF

Not found

Frequencies

Unicom 118.40 MHz Tajima Remote
Warning: Do not use this data for real-world aviation or navigation. No guarantee of current accuracy is given.